createdAt,value
2023-03-15T00:00:02.106Z,0
2023-03-15T00:05:02.092Z,0.101
2023-03-15T00:10:02.081Z,0.117
2023-03-15T00:15:02.102Z,0.162
2023-03-15T00:20:02.035Z,0.157
2023-03-15T00:25:02.064Z,0.156
2023-03-15T00:30:02.033Z,0.12
2023-03-15T00:35:02.361Z,0.122
2023-03-15T00:40:02.100Z,0.091
2023-03-15T00:45:02.071Z,0
2023-03-15T00:50:02.043Z,0
2023-03-15T00:55:02.085Z,0
2023-03-15T01:00:02.118Z,0.001
2023-03-15T01:05:02.143Z,0.001
2023-03-15T01:10:03.635Z,0
2023-03-15T01:15:02.103Z,0.018000000000000002
2023-03-15T01:20:02.100Z,0.116
2023-03-15T01:25:02.114Z,0.116
2023-03-15T01:30:02.167Z,0.111
2023-03-15T01:35:02.173Z,0.111
2023-03-15T01:40:02.112Z,0.108
2023-03-15T01:45:02.142Z,0.112
2023-03-15T01:50:02.130Z,0.078
2023-03-15T01:55:02.145Z,0
2023-03-15T02:00:02.298Z,0
2023-03-15T02:05:02.136Z,0
2023-03-15T02:10:02.316Z,0
2023-03-15T02:15:02.366Z,0
2023-03-15T02:20:02.651Z,0
2023-03-15T02:25:02.338Z,0.111
2023-03-15T02:30:02.311Z,0.113
2023-03-15T02:35:02.344Z,0.145
2023-03-15T02:40:02.331Z,0.17200000000000001
2023-03-15T02:45:02.317Z,0.176
2023-03-15T02:50:02.392Z,0.158
2023-03-15T02:55:02.345Z,0.037
2023-03-15T03:00:02.373Z,0
2023-03-15T03:05:02.341Z,0.064
2023-03-15T03:10:02.373Z,0.025
2023-03-15T03:15:02.321Z,0.002
2023-03-15T03:20:02.275Z,0
2023-03-15T03:25:02.265Z,0
2023-03-15T03:30:02.248Z,0
2023-03-15T03:35:02.294Z,0
2023-03-15T03:40:02.247Z,0
2023-03-15T03:45:02.397Z,0
2023-03-15T03:50:02.327Z,0
2023-03-15T03:55:02.261Z,0
2023-03-15T04:00:02.474Z,0
2023-03-15T04:05:02.250Z,0
2023-03-15T04:10:02.379Z,0
2023-03-15T04:15:02.357Z,0
2023-03-15T04:20:02.284Z,0
2023-03-15T04:25:02.228Z,0
2023-03-15T04:30:02.228Z,0
2023-03-15T04:35:02.382Z,0
2023-03-15T04:40:02.351Z,0
2023-03-15T04:45:02.302Z,0.097
2023-03-15T04:50:02.371Z,0.12
2023-03-15T04:55:02.233Z,0.12
2023-03-15T05:00:02.306Z,0.152
2023-03-15T05:05:02.349Z,0.165
2023-03-15T05:10:02.319Z,0.106
2023-03-15T05:15:02.394Z,0
2023-03-15T05:20:02.362Z,0
2023-03-15T05:25:02.326Z,0
2023-03-15T05:30:02.308Z,0
2023-03-15T05:35:02.412Z,0.031
2023-03-15T05:40:02.360Z,29.631
2023-03-15T05:45:02.362Z,42.141
2023-03-15T05:50:02.359Z,44.867000000000004
2023-03-15T05:55:02.333Z,76.621
2023-03-15T06:00:02.391Z,105.574
2023-03-15T06:05:02.336Z,132.364
2023-03-15T06:10:02.394Z,157.091
2023-03-15T06:15:02.435Z,183.317
2023-03-15T06:20:02.315Z,215.06900000000002
2023-03-15T06:25:02.497Z,278.733
2023-03-15T06:30:02.385Z,530.081
2023-03-15T06:35:02.413Z,694.808
2023-03-15T06:40:02.422Z,820.893
2023-03-15T06:45:02.383Z,939.063
2023-03-15T06:50:02.405Z,1072.905
2023-03-15T06:55:02.449Z,1222.569
2023-03-15T07:00:02.419Z,1389.208
2023-03-15T07:05:02.488Z,1498.445
2023-03-15T07:10:03.628Z,1741.259
2023-03-15T07:15:02.453Z,1999.334
2023-03-15T07:20:02.427Z,2186.286
2023-03-15T07:25:02.418Z,2385.969
2023-03-15T07:30:02.450Z,2574.606
2023-03-15T07:35:02.488Z,2787.089
2023-03-15T07:40:02.423Z,2979.0660000000003
2023-03-15T07:45:02.459Z,3172.703
2023-03-15T07:50:02.461Z,3007.061
2023-03-15T07:55:02.505Z,2764.08
2023-03-15T08:00:02.378Z,2114.745
2023-03-15T08:05:02.491Z,2656.677
2023-03-15T08:10:03.642Z,3809.8430000000003
2023-03-15T08:15:02.472Z,4244.463
2023-03-15T08:20:02.415Z,4199.45
2023-03-15T08:25:02.486Z,4646.07
2023-03-15T08:30:02.508Z,4848.362
2023-03-15T08:35:02.555Z,4943.148
2023-03-15T08:40:02.508Z,5055.321
2023-03-15T08:45:02.532Z,5243.441
2023-03-15T08:50:02.553Z,5658.319
2023-03-15T08:55:02.550Z,5342.486
2023-03-15T09:00:02.442Z,5729.2080000000005
2023-03-15T09:05:02.485Z,5874.222
2023-03-15T09:10:05.347Z,6085.046
2023-03-15T09:15:02.495Z,6458.421
2023-03-15T09:20:02.576Z,6600.8910000000005
2023-03-15T09:25:02.542Z,7127.061
2023-03-15T09:30:02.530Z,7237.687
2023-03-15T09:35:02.502Z,6510.938
2023-03-15T09:40:02.562Z,6426.360000000001
2023-03-15T09:45:02.582Z,7901.2660000000005
2023-03-15T09:50:02.598Z,6439.218
2023-03-15T09:55:02.581Z,4546.269
2023-03-15T10:00:02.619Z,4099.849
2023-03-15T10:05:02.593Z,7198.47
2023-03-15T10:10:02.586Z,4445.954
2023-03-15T10:15:02.586Z,6054.183
2023-03-15T10:20:02.603Z,4133.8730000000005
2023-03-15T10:25:02.596Z,4546.569
2023-03-15T10:30:02.559Z,1380.539
2023-03-15T10:35:02.615Z,3250.456
2023-03-15T10:40:02.662Z,8146.206
2023-03-15T10:45:02.604Z,5318.495
2023-03-15T10:50:02.581Z,5086.119
2023-03-15T10:55:04.506Z,5295.176
2023-03-15T11:00:02.635Z,1042.18
2023-03-15T11:05:02.688Z,4385.212
2023-03-15T11:10:02.694Z,4882.66
2023-03-15T11:15:02.757Z,6221.805
2023-03-15T11:20:02.694Z,8347.298
2023-03-15T11:25:02.802Z,2405.3
2023-03-15T11:30:02.729Z,2944.802
2023-03-15T11:35:02.808Z,4671.068
2023-03-15T11:40:11.089Z,7759.138
2023-03-15T11:45:02.732Z,8205.635
2023-03-15T11:50:02.759Z,3482.688
2023-03-15T11:55:02.730Z,2674.785
2023-03-15T12:00:02.814Z,6366.05
2023-03-15T12:05:12.538Z,882.548
2023-03-15T12:10:02.874Z,2357.206
2023-03-15T12:15:02.934Z,8605.424
2023-03-15T12:20:01.110Z,5977.81
2023-03-15T12:25:01.057Z,8081.241
2023-03-15T12:30:01.120Z,7998.8060000000005
2023-03-15T12:35:01.149Z,7821.357
2023-03-15T12:40:01.093Z,7755.53
2023-03-15T12:45:01.108Z,7792.554
2023-03-15T12:50:01.107Z,5876.2880000000005
2023-03-15T12:55:01.096Z,8456.933
2023-03-15T13:00:01.197Z,7771.393
2023-03-15T13:05:01.363Z,3436.737
2023-03-15T13:10:01.258Z,1418.393
2023-03-15T13:15:01.300Z,5758.033
2023-03-15T13:20:01.284Z,7667.4980000000005
2023-03-15T13:25:01.311Z,7505.829
2023-03-15T13:30:01.239Z,7230.423
2023-03-15T13:35:01.331Z,6678.647
2023-03-15T13:40:01.279Z,5328.784000000001
2023-03-15T13:45:01.298Z,1915.347
2023-03-15T13:50:01.283Z,5855.874
2023-03-15T13:55:01.325Z,2497.034
2023-03-15T14:00:01.370Z,3984.152
2023-03-15T14:05:01.375Z,1878.707
2023-03-15T14:10:01.414Z,4600.3820000000005
2023-03-15T14:15:01.191Z,5320.818
2023-03-15T14:20:01.201Z,5035.685
2023-03-15T14:25:01.218Z,4842.063
2023-03-15T14:30:01.201Z,4537.417
2023-03-15T14:35:01.196Z,3435.373
2023-03-15T14:40:01.194Z,4543.615
2023-03-15T14:45:01.247Z,4033.504
2023-03-15T14:50:01.311Z,3813.666
2023-03-15T14:55:01.224Z,3460.237
2023-03-15T15:00:01.242Z,3264.397
2023-03-15T15:05:01.286Z,3071.5570000000002
2023-03-15T15:10:01.304Z,3009.3160000000003
2023-03-15T15:15:01.261Z,3008.994
2023-03-15T15:20:01.244Z,1528.828
2023-03-15T15:25:01.291Z,2448.428
2023-03-15T15:30:01.392Z,2387.708
2023-03-15T15:35:01.292Z,2438.64
2023-03-15T15:40:01.204Z,2333.16
2023-03-15T15:45:01.286Z,2287.459
2023-03-15T15:50:01.269Z,2192.866
2023-03-15T15:55:01.268Z,1885.43
2023-03-15T16:00:01.276Z,1538.979
2023-03-15T16:05:01.337Z,334.588
2023-03-15T16:10:01.537Z,336.104
2023-03-15T16:15:01.273Z,1128.753
2023-03-15T16:20:01.287Z,895.993
2023-03-15T16:25:01.289Z,624.464
2023-03-15T16:30:01.316Z,566.424
2023-03-15T16:35:04.753Z,278.271
2023-03-15T16:40:01.368Z,127.70700000000001
2023-03-15T16:45:01.345Z,49.576
2023-03-15T16:50:01.321Z,25.474
2023-03-15T16:55:01.295Z,33.594
2023-03-15T17:00:03.246Z,31.150000000000002
2023-03-15T17:05:01.364Z,0.23900000000000002
2023-03-15T17:10:01.820Z,0.131
2023-03-15T17:15:01.285Z,0.10400000000000001
2023-03-15T17:20:01.604Z,0.06
2023-03-15T17:25:01.343Z,0.04
2023-03-15T17:30:02.401Z,0.032
2023-03-15T17:35:01.347Z,0.01
2023-03-15T17:40:01.352Z,0
2023-03-15T17:45:01.582Z,0.002
2023-03-15T17:50:01.421Z,0.047
2023-03-15T17:55:01.370Z,0.222
2023-03-15T18:00:01.421Z,0.108
2023-03-15T18:05:05.688Z,0.109
2023-03-15T18:10:01.486Z,0.148
2023-03-15T18:15:01.436Z,0.051000000000000004
2023-03-15T18:20:01.374Z,0.056
2023-03-15T18:25:01.420Z,0.05
2023-03-15T18:30:01.343Z,0.053
2023-03-15T18:35:01.420Z,0.04
2023-03-15T18:40:01.450Z,1.725
2023-03-15T18:45:01.486Z,3.646
2023-03-15T18:50:09.871Z,3.593
2023-03-15T18:55:01.409Z,3.559
2023-03-15T19:00:01.466Z,0.548
2023-03-15T19:05:01.370Z,0.011
2023-03-15T19:10:01.683Z,0.183
2023-03-15T19:15:01.642Z,0.125
2023-03-15T19:20:01.441Z,0.07100000000000001
2023-03-15T19:25:01.633Z,0.083
2023-03-15T19:30:01.482Z,0.397
2023-03-15T19:35:01.904Z,0.23600000000000002
2023-03-15T19:40:01.941Z,0.196
2023-03-15T19:45:01.425Z,0.508
2023-03-15T19:50:01.482Z,0.198
2023-03-15T19:55:01.527Z,0.211
2023-03-15T20:00:01.488Z,0.196
2023-03-15T20:05:01.695Z,0.396
2023-03-15T20:10:01.507Z,0.2
2023-03-15T20:15:01.541Z,0.2
2023-03-15T20:20:01.459Z,0.446
2023-03-15T20:25:01.547Z,0.073
2023-03-15T20:30:01.588Z,0.023
2023-03-15T20:35:01.474Z,0.055
2023-03-15T20:40:01.547Z,0.14200000000000002
2023-03-15T20:45:01.497Z,0.179
2023-03-15T20:50:01.515Z,0.153
2023-03-15T20:55:01.541Z,0.171
2023-03-15T21:00:01.521Z,0.17400000000000002
2023-03-15T21:05:01.544Z,0.17400000000000002
2023-03-15T21:10:01.486Z,0.162
2023-03-15T21:15:01.577Z,0.08
2023-03-15T21:20:01.568Z,0.001
2023-03-15T21:25:01.503Z,0
2023-03-15T21:30:01.543Z,0.007
2023-03-15T21:35:01.595Z,0.005
2023-03-15T21:40:01.625Z,0
2023-03-15T21:45:01.545Z,0
2023-03-15T21:50:01.544Z,0
2023-03-15T21:55:01.510Z,0.066
2023-03-15T22:00:01.583Z,0.095
2023-03-15T22:05:01.652Z,0.457
2023-03-15T22:10:01.523Z,0.629
2023-03-15T22:15:05.537Z,0.647
2023-03-15T22:20:01.601Z,0.63
2023-03-15T22:25:01.542Z,0.646
2023-03-15T22:30:01.563Z,0.648
2023-03-15T22:35:01.694Z,0.676
2023-03-15T22:40:01.637Z,0.6880000000000001
2023-03-15T22:45:01.553Z,0.76
2023-03-15T22:50:01.620Z,0.9390000000000001
2023-03-15T22:55:01.646Z,0.9530000000000001
2023-03-15T23:00:01.680Z,0.926
2023-03-15T23:05:01.772Z,0.917
2023-03-15T23:10:01.674Z,0.884
2023-03-15T23:15:03.976Z,0.7000000000000001
2023-03-15T23:20:01.701Z,0.635
2023-03-15T23:25:01.596Z,0.189
2023-03-15T23:30:01.622Z,0.003
2023-03-15T23:35:01.730Z,0.001
2023-03-15T23:40:03.215Z,0
2023-03-15T23:45:01.701Z,0.001
2023-03-15T23:50:01.634Z,0
2023-03-15T23:55:01.658Z,0.001
